Time;durP1;ratioP1;P1;durP2;ratioP2;P2;SDS_P1;SDS_P2;PMS_P1;PMS_P2;Temp;Humidity;BMP_temperature;BMP_pressure;BME280_temperature;BME280_humidity;BME280_pressure;Samples;Min_cycle;Max_cycle;Signal;HPM_P1;HPM_P2
2022/06/20 00:02:24;;;;;;;4.30;2.23;;;18.00;58.90;;;20.99;44.88;101274.03;5122333;28;20212;-59
2022/06/20 00:04:55;;;;;;;5.47;2.20;;;18.10;58.80;;;21.02;44.85;101262.06;5121526;28;20195;-61
2022/06/20 00:07:23;;;;;;;2.93;1.77;;;18.10;58.60;;;21.03;45.30;101253.81;5117292;28;20249;-62
2022/06/20 00:09:51;;;;;;;4.50;2.10;;;18.20;58.60;;;21.06;45.08;101239.19;5118117;28;20268;-61
2022/06/20 00:12:24;;;;;;;5.17;2.17;;;18.20;58.70;;;21.08;44.99;101232.56;5113350;28;20219;-61
2022/06/20 00:14:57;;;;;;;8.83;2.50;;;18.30;58.70;;;21.12;45.30;101223.00;5095752;28;20193;-59
2022/06/20 00:17:27;;;;;;;4.43;2.07;;;18.40;58.60;;;21.18;44.60;101219.38;5096142;28;20188;-62
2022/06/20 00:19:54;;;;;;;4.80;1.97;;;18.40;58.50;;;21.22;45.02;101225.09;5096565;28;20185;-62
2022/06/20 00:22:22;;;;;;;3.50;1.70;;;18.40;58.30;;;21.26;44.67;101218.22;5095392;28;20216;-60
2022/06/20 00:24:50;;;;;;;7.20;2.20;;;18.50;58.90;;;21.28;44.59;101222.31;5095625;28;20185;-60
2022/06/20 00:27:17;;;;;;;5.87;2.10;;;18.50;58.20;;;21.30;44.55;101216.75;5095203;28;20193;-59
2022/06/20 00:29:47;;;;;;;4.30;2.20;;;18.60;58.20;;;21.30;44.97;101227.44;5111706;28;20196;-59
2022/06/20 00:32:14;;;;;;;7.13;2.10;;;18.50;58.10;;;21.26;44.78;101234.28;5115474;28;20218;-61
2022/06/20 00:34:43;;;;;;;9.90;2.33;;;18.50;58.10;;;21.23;44.65;101227.53;5115437;28;20227;-60
2022/06/20 00:37:19;;;;;;;4.37;2.30;;;18.50;58.30;;;21.20;44.81;101214.63;5115362;28;20198;-60
2022/06/20 00:39:49;;;;;;;6.20;1.87;;;18.50;58.40;;;21.15;44.91;101229.75;5115799;28;20689;-61
2022/06/20 00:42:17;;;;;;;4.70;2.17;;;18.50;58.40;;;21.05;44.90;101246.41;5114848;28;20204;-60
2022/06/20 00:45:06;;;;;;;2.97;2.07;;;18.40;58.60;;;20.94;45.92;101233.78;5100631;28;20207;-61
2022/06/20 00:48:01;;;;;;;6.70;2.10;;;18.30;58.90;;;20.85;45.90;101229.78;5095511;28;20208;-60
2022/06/20 00:50:56;;;;;;;5.00;1.87;;;18.20;59.10;;;20.75;45.86;101259.00;5095353;28;20230;-61
2022/06/20 00:53:48;;;;;;;6.40;2.07;;;18.10;59.30;;;20.74;46.65;101227.91;5095184;28;20290;-61
2022/06/20 00:56:50;;;;;;;7.67;2.27;;;18.10;60.30;;;20.72;46.05;101225.47;5094906;28;20204;-61
2022/06/20 00:59:43;;;;;;;4.73;1.90;;;18.10;59.70;;;20.69;46.73;101219.75;5102804;28;20252;-61
2022/06/20 01:02:36;;;;;;;6.83;2.13;;;18.00;59.70;;;20.65;46.87;101202.53;5115028;28;20296;-61
2022/06/20 01:05:31;;;;;;;7.63;2.57;;;18.00;60.70;;;20.62;46.86;101219.84;5116591;28;20199;-62
2022/06/20 01:08:25;;;;;;;7.67;2.00;;;18.00;61.20;;;20.58;46.56;101233.91;5115948;28;20200;-61
2022/06/20 01:11:18;;;;;;;7.53;2.40;;;17.90;60.30;;;20.53;47.22;101231.94;5118245;28;20242;-62
2022/06/20 01:14:22;;;;;;;5.87;2.30;;;17.90;60.50;;;20.50;47.39;101232.38;5113727;28;20190;-61
2022/06/20 01:17:25;;;;;;;6.50;2.07;;;17.80;60.90;;;20.52;46.98;101203.53;5074340;28;20571;-59
2022/06/20 01:20:23;;;;;;;7.17;2.63;;;17.80;61.10;;;20.54;47.18;101200.66;5075049;28;20208;-60
2022/06/20 01:23:26;;;;;;;6.37;2.23;;;17.80;61.10;;;20.55;47.62;101212.97;5074757;28;20553;-61
2022/06/20 01:26:46;;;;;;;4.33;2.20;;;17.90;61.30;;;20.51;47.56;101222.50;5074460;28;20192;-62
2022/06/20 01:29:33;;;;;;;5.10;2.20;;;17.90;61.30;;;20.57;47.36;101235.78;5075080;28;20243;-61
2022/06/20 01:32:19;;;;;;;6.13;2.33;;;18.00;61.30;;;20.62;47.32;101248.47;5108737;28;20219;-61
2022/06/20 01:35:11;;;;;;;5.13;2.43;;;18.00;61.00;;;20.65;47.04;101250.69;5115459;28;20202;-61
2022/06/20 01:37:57;;;;;;;6.97;2.57;;;18.00;60.70;;;20.68;47.31;101239.53;5115822;28;21142;-61
2022/06/20 01:43:54;;;;;;;6.97;2.10;;;17.90;60.80;;;20.70;47.35;101237.44;5114399;28;20209;-61
2022/06/20 01:46:41;;;;;;;6.33;2.40;;;17.90;60.70;;;20.73;46.89;101231.63;5110376;28;20203;-60
2022/06/20 01:49:32;;;;;;;6.90;2.13;;;18.00;61.00;;;20.74;46.65;101233.25;5094008;28;20250;-60
2022/06/20 01:52:29;;;;;;;7.40;2.20;;;18.00;60.80;;;20.71;46.45;101221.16;5093582;28;20227;-60
2022/06/20 01:55:24;;;;;;;7.53;1.97;;;17.90;60.50;;;20.70;46.93;101221.41;5093756;28;20206;-60
2022/06/20 01:58:19;;;;;;;7.13;2.03;;;17.90;60.50;;;20.65;47.03;101231.97;5097632;28;20199;-58
2022/06/20 02:01:05;;;;;;;5.50;2.20;;;17.90;60.90;;;20.61;46.40;101234.25;5110031;28;20315;-60
2022/06/20 02:03:53;;;;;;;6.47;2.37;;;17.80;60.60;;;20.55;46.55;101240.53;5111796;28;20333;-58
2022/06/20 02:06:39;;;;;;;7.20;2.40;;;17.80;60.80;;;20.50;47.01;101237.72;5117590;28;20683;-59
2022/06/20 02:09:26;;;;;;;7.67;2.17;;;17.70;61.00;;;20.42;47.40;101232.69;5117359;28;20207;-62
2022/06/20 02:12:14;;;;;;;4.03;1.90;;;17.60;61.00;;;20.30;47.43;101225.69;5116698;28;20226;-60
2022/06/20 02:15:01;;;;;;;7.67;2.43;;;17.60;61.30;;;20.20;47.92;101227.00;5117188;28;20210;-61
2022/06/20 02:17:50;;;;;;;5.97;2.40;;;17.50;61.80;;;20.11;48.20;101232.88;5114967;28;20199;-60
2022/06/20 02:20:48;;;;;;;5.20;2.13;;;17.40;62.30;;;20.09;48.10;101245.63;5096097;28;20195;-62
2022/06/20 02:23:41;;;;;;;4.47;2.30;;;17.40;62.60;;;20.08;47.92;101244.84;5096725;28;20196;-62
2022/06/20 02:26:30;;;;;;;6.83;2.20;;;17.30;62.60;;;20.07;48.37;101255.75;5096239;28;20269;-60
2022/06/20 02:29:20;;;;;;;3.27;1.90;;;17.30;62.70;;;20.02;48.26;101250.25;5096804;28;20780;-60
2022/06/20 02:32:12;;;;;;;4.27;2.10;;;17.20;62.70;;;19.99;48.37;101240.81;5095343;28;20605;-60
2022/06/20 02:34:58;;;;;;;7.70;2.30;;;17.20;63.20;;;19.99;49.05;101229.34;5112348;28;20194;-59
2022/06/20 02:37:47;;;;;;;4.30;2.47;;;17.20;63.80;;;20.02;48.90;101227.00;5116666;28;20276;-60
2022/06/20 02:40:34;;;;;;;5.97;2.90;;;17.20;63.70;;;20.06;49.35;101225.50;5116484;28;20198;-59
2022/06/20 02:43:26;;;;;;;4.10;2.33;;;17.30;63.80;;;20.04;48.66;101232.16;5116594;28;20218;-61
2022/06/20 02:46:21;;;;;;;4.40;2.37;;;17.30;63.30;;;20.00;48.88;101236.28;5115947;28;20198;-61
2022/06/20 02:49:10;;;;;;;5.93;2.60;;;17.30;63.40;;;20.03;48.96;101233.19;5110184;28;20281;-60
2022/06/20 02:51:59;;;;;;;6.57;2.83;;;17.30;63.40;;;20.04;48.37;101227.59;5095539;28;20301;-60
2022/06/20 02:54:50;;;;;;;7.70;3.17;;;17.40;62.60;;;20.01;48.60;101228.06;5096264;28;20283;-60
2022/06/20 02:57:43;;;;;;;7.90;3.10;;;17.30;62.60;;;19.99;48.17;101240.81;5096055;28;20689;-62
2022/06/20 03:00:43;;;;;;;4.93;2.90;;;17.40;62.50;;;19.94;48.39;101245.22;5095236;28;20220;-62
2022/06/20 03:03:35;;;;;;;7.83;3.00;;;17.30;62.20;;;19.92;48.46;101255.31;5095705;28;20262;-62
2022/06/20 03:06:27;;;;;;;7.20;3.20;;;17.30;62.30;;;19.87;48.10;101255.97;5115022;28;20207;-60
2022/06/20 03:09:18;;;;;;;4.63;2.53;;;17.30;62.40;;;19.82;48.20;101250.50;5115307;28;20207;-60
2022/06/20 03:12:08;;;;;;;5.47;2.47;;;17.20;62.30;;;19.76;48.93;101267.41;5115986;28;20553;-60
2022/06/20 03:14:59;;;;;;;8.93;3.23;;;17.20;63.00;;;19.78;48.60;101284.00;5116523;28;20211;-61
2022/06/20 03:17:50;;;;;;;4.73;2.13;;;17.20;62.80;;;19.81;48.38;101288.94;5115724;28;20191;-61
2022/06/20 03:20:36;;;;;;;6.63;2.57;;;17.10;62.60;;;19.82;48.60;101298.59;5114676;28;20199;-61
2022/06/20 03:23:27;;;;;;;4.87;2.30;;;17.10;62.60;;;19.78;48.05;101297.38;5115745;28;20216;-61
2022/06/20 03:26:22;;;;;;;6.80;2.47;;;17.10;62.60;;;19.72;48.18;101284.91;5115901;28;20209;-61
2022/06/20 03:29:14;;;;;;;6.27;2.27;;;17.00;63.50;;;19.71;48.48;101293.94;5115557;28;20681;-59
2022/06/20 03:32:00;;;;;;;10.70;3.30;;;17.00;62.90;;;19.72;48.67;101302.78;5115577;28;20308;-61
2022/06/20 03:34:46;;;;;;;9.43;3.00;;;16.90;63.20;;;19.71;48.54;101296.63;5115881;28;20206;-60
2022/06/20 03:37:32;;;;;;;7.67;2.30;;;17.00;63.40;;;19.73;48.59;101301.75;5096543;28;20227;-61
2022/06/20 03:40:18;;;;;;;5.40;2.30;;;17.00;63.30;;;19.67;48.41;101295.44;5095220;28;20196;-61
2022/06/20 03:43:06;;;;;;;4.67;2.50;;;16.90;63.00;;;19.61;48.35;101284.81;5095085;28;20195;-61
2022/06/20 03:45:59;;;;;;;5.77;2.50;;;16.90;62.90;;;19.54;48.65;101279.53;5094845;28;20195;-61
2022/06/20 03:48:57;;;;;;;3.97;2.30;;;16.80;63.10;;;19.48;48.61;101278.56;5094846;28;20338;-61
2022/06/20 03:51:47;;;;;;;5.27;2.30;;;16.80;63.20;;;19.45;48.95;101288.84;5094484;28;20586;-61
2022/06/20 03:54:45;;;;;;;8.00;2.47;;;16.70;63.10;;;19.37;49.05;101278.47;5094955;28;20199;-60
2022/06/20 03:57:38;;;;;;;10.40;2.70;;;16.70;63.30;;;19.36;48.66;101285.66;5094958;28;20204;-61
2022/06/20 04:00:36;;;;;;;6.87;2.10;;;16.60;63.50;;;19.35;49.06;101283.19;5094101;28;20199;-59
2022/06/20 04:03:31;;;;;;;5.70;2.20;;;16.60;63.50;;;19.35;48.97;101272.50;5094906;28;20190;-61
2022/06/20 04:06:31;;;;;;;7.03;2.77;;;16.60;63.70;;;19.34;49.05;101276.19;5094500;28;20184;-60
2022/06/20 04:12:39;;;;;;;4.60;2.17;;;16.60;64.00;;;19.34;49.12;101271.69;5113989;28;20219;-60
2022/06/20 04:15:32;;;;;;;4.87;2.40;;;16.60;64.80;;;19.38;49.26;101262.22;5114687;28;20199;-61
2022/06/20 04:18:29;;;;;;;3.60;2.47;;;16.60;64.30;;;19.39;49.25;101255.03;5114191;28;20256;-60
2022/06/20 04:21:25;;;;;;;10.93;3.13;;;16.60;64.30;;;19.33;49.32;101250.53;5114288;28;20227;-59
2022/06/20 04:24:21;;;;;;;6.77;2.60;;;16.60;64.30;;;19.11;49.96;101246.63;5098083;28;20199;-59
2022/06/20 04:27:20;;;;;;;9.63;3.00;;;16.60;64.00;;;18.88;50.59;101245.34;5094002;28;20215;-59
2022/06/20 04:30:17;;;;;;;7.23;2.57;;;16.50;64.10;;;18.84;50.53;101236.16;5094084;28;20199;-62
2022/06/20 04:33:13;;;;;;;9.87;3.03;;;16.50;64.00;;;18.90;50.29;101235.28;5093722;28;20211;-60
2022/06/20 04:36:15;;;;;;;5.73;2.57;;;16.50;64.50;;;19.02;49.97;101222.03;5093955;28;20313;-62
2022/06/20 04:39:13;;;;;;;5.33;2.83;;;16.50;64.60;;;19.11;50.17;101225.28;5104404;28;20199;-61
2022/06/20 04:42:08;;;;;;;6.53;1.93;;;16.50;64.50;;;19.21;49.91;101220.25;5113698;28;20214;-60
2022/06/20 04:45:02;;;;;;;4.70;2.23;;;16.60;64.60;;;19.29;49.85;101218.13;5114170;28;20203;-59
2022/06/20 04:47:54;;;;;;;5.37;2.47;;;16.60;64.30;;;19.37;49.50;101214.41;5112897;28;20268;-59
2022/06/20 04:50:47;;;;;;;8.50;2.50;;;16.60;64.30;;;19.44;49.32;101196.44;5113957;28;20203;-59
2022/06/20 04:53:40;;;;;;;6.17;2.80;;;16.70;64.40;;;19.54;49.40;101205.56;5111916;28;20219;-60
2022/06/20 04:56:29;;;;;;;7.07;2.40;;;16.70;64.40;;;19.63;48.97;101198.09;5094029;28;20725;-59
2022/06/20 04:59:23;;;;;;;7.17;2.40;;;16.80;64.20;;;19.69;48.83;101193.69;5093664;28;20326;-61
2022/06/20 05:02:18;;;;;;;7.63;2.57;;;16.80;64.00;;;19.76;48.82;101181.91;5095959;28;20223;-61
2022/06/20 05:05:05;;;;;;;8.73;3.23;;;16.90;64.10;;;19.89;48.56;101180.94;5095033;28;20254;-59
2022/06/20 05:07:51;;;;;;;6.67;2.73;;;16.90;64.20;;;19.95;48.88;101183.50;5094715;28;20203;-62
2022/06/20 05:10:46;;;;;;;5.50;2.33;;;17.00;64.10;;;19.98;48.59;101169.72;5106500;28;20682;-61
2022/06/20 05:13:41;;;;;;;5.17;3.40;;;17.10;64.00;;;20.03;48.44;101167.19;5114507;28;20284;-60
2022/06/20 05:16:33;;;;;;;4.30;2.03;;;17.10;64.10;;;20.11;48.50;101176.75;5116323;28;20198;-60
2022/06/20 05:19:26;;;;;;;6.90;3.00;;;17.20;64.00;;;20.19;48.74;101169.22;5114890;28;20215;-61
2022/06/20 05:22:19;;;;;;;6.77;2.77;;;17.30;63.70;;;20.23;48.63;101166.91;5114031;28;20211;-62
2022/06/20 05:25:18;;;;;;;8.63;2.90;;;17.40;63.60;;;20.28;47.95;101168.94;5113598;28;20199;-62
2022/06/20 05:28:13;;;;;;;8.77;3.13;;;17.40;63.20;;;20.28;48.37;101166.28;5113420;28;20257;-61
2022/06/20 05:31:01;;;;;;;6.63;2.40;;;17.40;63.10;;;20.36;48.37;101163.25;5114100;28;20223;-60
2022/06/20 05:33:57;;;;;;;9.30;2.57;;;17.50;64.10;;;20.49;47.94;101160.41;5117991;28;20222;-59
2022/06/20 05:36:31;;;;;;;7.07;3.07;;;17.50;63.40;;;20.64;47.63;101152.72;5117588;27;20230;-62
2022/06/20 05:39:15;;;;;;;6.50;2.10;;;17.60;63.50;;;20.73;47.65;101152.16;5117138;28;20217;-61
2022/06/20 05:41:44;;;;;;;6.30;2.33;;;17.70;63.30;;;20.84;47.93;101150.56;5108166;28;20216;-60
2022/06/20 05:44:14;;;;;;;9.60;3.50;;;17.80;63.30;;;20.92;47.81;101144.84;5096912;28;20271;-61
2022/06/20 05:46:48;;;;;;;9.63;3.67;;;17.80;63.30;;;20.97;47.63;101161.03;5096018;28;20192;-61
2022/06/20 05:49:25;;;;;;;7.67;2.93;;;17.90;64.20;;;21.00;47.82;101157.91;5097295;28;20264;-60
2022/06/20 05:51:55;;;;;;;5.63;2.73;;;17.90;63.40;;;21.04;48.06;101156.38;5112295;28;20580;-62
2022/06/20 05:54:48;;;;;;;7.73;2.63;;;18.00;63.90;;;21.01;47.42;101164.91;5096739;28;20200;-62
2022/06/20 05:57:23;;;;;;;5.43;3.13;;;18.00;63.40;;;21.06;47.99;101166.91;5097303;28;20249;-61
2022/06/20 05:59:58;;;;;;;6.50;2.10;;;18.00;63.60;;;21.07;47.69;101168.50;5098661;28;20188;-60
2022/06/20 06:02:32;;;;;;;4.40;2.03;;;18.10;63.90;;;21.08;48.11;101180.88;5098346;28;20200;-60
2022/06/20 06:05:16;;;;;;;5.50;2.53;;;18.10;64.30;;;21.08;48.18;101183.53;5098282;28;20267;-59
2022/06/20 06:07:53;;;;;;;6.37;3.53;;;18.10;64.90;;;21.07;48.82;101185.41;5097468;28;20188;-60
2022/06/20 06:10:39;;;;;;;7.63;3.13;;;18.10;65.30;;;21.09;48.51;101187.84;5097930;28;20195;-61
2022/06/20 06:13:21;;;;;;;9.00;4.10;;;18.10;65.50;;;21.18;48.88;101187.25;5104159;28;20587;-59
2022/06/20 06:18:59;;;;;;;6.73;4.17;;;18.20;65.90;;;21.38;48.58;101189.59;5117181;28;20207;-62
2022/06/20 06:21:28;;;;;;;7.80;3.67;;;18.20;65.80;;;21.48;48.84;101192.50;5116601;28;20227;-61
2022/06/20 06:23:59;;;;;;;6.20;4.50;;;18.30;65.70;;;21.52;49.01;101190.97;5115665;28;20207;-59
2022/06/20 06:26:27;;;;;;;7.17;3.80;;;18.40;65.70;;;21.56;48.67;101189.47;5116762;28;20212;-62
2022/06/20 06:28:55;;;;;;;9.77;3.80;;;18.40;66.20;;;21.59;48.27;101192.47;5115818;28;20271;-60
2022/06/20 06:31:31;;;;;;;6.00;3.23;;;18.50;65.40;;;21.67;48.60;101201.19;5116260;28;20227;-62
2022/06/20 06:34:11;;;;;;;5.77;3.20;;;18.50;65.30;;;21.79;48.25;101191.28;5117395;28;20280;-62
2022/06/20 06:36:44;;;;;;;6.13;3.10;;;18.60;65.20;;;21.86;48.13;101198.16;5117047;28;20678;-62
2022/06/20 06:39:20;;;;;;;11.10;4.07;;;18.70;64.90;;;21.91;47.31;101198.28;5116680;28;20184;-59
2022/06/20 06:41:54;;;;;;;10.30;5.27;;;18.70;63.90;;;21.96;47.72;101200.22;5116688;28;20279;-62
2022/06/20 06:44:36;;;;;;;11.90;5.93;;;18.80;63.80;;;21.93;47.69;101195.34;5111508;28;20194;-62
2022/06/20 06:47:16;;;;;;;9.40;4.40;;;18.90;63.90;;;21.91;47.52;101203.63;5096202;28;20193;-62
2022/06/20 06:49:48;;;;;;;7.43;3.63;;;18.90;63.60;;;21.89;47.75;101194.19;5094703;28;20207;-61
2022/06/20 06:52:27;;;;;;;7.27;3.67;;;18.90;63.20;;;21.89;47.59;101196.88;5111528;28;20243;-61
2022/06/20 06:55:01;;;;;;;6.20;3.40;;;18.90;63.30;;;21.93;47.14;101201.53;5096408;28;20200;-62
2022/06/20 06:57:37;;;;;;;6.07;2.93;;;18.90;62.90;;;21.95;46.80;101209.31;5096177;28;20205;-62
2022/06/20 07:00:24;;;;;;;9.43;3.43;;;19.00;61.80;;;21.88;46.67;101208.63;5102310;28;20198;-61
2022/06/20 07:02:58;;;;;;;3.73;2.20;;;19.00;61.50;;;21.89;46.72;101215.63;5096440;28;20277;-62
2022/06/20 07:05:34;;;;;;;7.73;3.17;;;19.00;60.80;;;21.92;45.56;101220.50;5092514;28;20200;-61
2022/06/20 07:08:11;;;;;;;6.87;2.73;;;19.00;59.30;;;22.04;45.35;101219.44;5088923;28;20630;-63
2022/06/20 07:10:47;;;;;;;8.57;3.60;;;19.00;59.30;;;22.18;44.98;101233.38;5089755;28;20202;-62
2022/06/20 07:13:27;;;;;;;8.03;3.40;;;19.10;60.50;;;22.25;44.88;101242.91;5090663;28;20211;-61
2022/06/20 07:16:02;;;;;;;6.27;3.20;;;19.20;59.50;;;22.33;44.53;101244.41;5101992;28;20738;-60
2022/06/20 07:18:42;;;;;;;7.53;3.07;;;19.30;59.30;;;22.33;44.21;101246.25;5116005;27;20633;-61
2022/06/20 07:21:15;;;;;;;5.23;3.40;;;19.30;58.60;;;22.33;44.17;101246.25;5090419;28;20692;-62
2022/06/20 07:23:45;;;;;;;6.97;2.50;;;19.30;58.50;;;22.40;43.85;101247.75;5089893;28;20192;-62
2022/06/20 07:26:17;;;;;;;7.83;2.60;;;19.30;58.10;;;22.38;43.82;101249.88;5089650;28;20202;-62
2022/06/20 07:28:53;;;;;;;7.80;4.20;;;19.40;57.60;;;22.36;43.43;101254.66;5089971;28;20192;-63
2022/06/20 07:31:41;;;;;;;6.20;2.50;;;19.40;57.90;;;22.37;43.32;101244.75;5090606;28;20282;-64
2022/06/20 07:34:19;;;;;;;9.80;2.53;;;19.40;57.40;;;22.40;43.13;101239.72;5089758;28;20215;-62
2022/06/20 07:36:54;;;;;;;4.60;2.23;;;19.40;57.00;;;22.47;42.75;101235.00;5090327;28;20661;-61
2022/06/20 07:39:28;;;;;;;7.23;2.60;;;19.40;56.60;;;22.52;42.57;101235.09;5091192;28;20261;-62
2022/06/20 07:42:04;;;;;;;6.90;2.73;;;19.40;56.20;;;22.62;42.14;101240.69;5089526;28;20311;-61
2022/06/20 07:44:38;;;;;;;2.63;2.17;;;19.50;55.80;;;22.76;42.13;101233.13;5092701;28;20219;-62
2022/06/20 07:47:14;;;;;;;5.33;2.10;;;19.60;55.70;;;22.88;41.64;101232.03;5093094;28;20200;-63
2022/06/20 07:49:49;;;;;;;4.27;2.10;;;19.80;55.50;;;23.03;41.36;101239.53;5093184;28;20549;-60
2022/06/20 07:52:24;;;;;;;3.40;1.87;;;19.90;55.30;;;23.15;40.67;101247.50;5089728;28;20226;-60
2022/06/20 07:54:59;;;;;;;2.63;1.90;;;20.00;54.40;;;23.20;40.57;101245.69;5092073;28;20215;-65
2022/06/20 07:57:35;;;;;;;5.20;1.93;;;20.00;54.00;;;23.29;39.93;101243.41;5090254;28;20196;-59
2022/06/20 08:00:09;;;;;;;8.63;2.90;;;20.10;53.40;;;23.37;39.26;101243.00;5089607;28;20953;-60
2022/06/20 08:02:46;;;;;;;5.23;2.13;;;20.20;52.50;;;23.48;39.06;101234.88;5090029;28;20336;-62
2022/06/20 08:05:23;;;;;;;4.33;2.10;;;20.20;52.10;;;23.62;38.85;101238.00;5088779;28;20192;-62
2022/06/20 08:08:04;;;;;;;2.40;1.80;;;20.30;53.40;;;23.75;39.16;101237.63;5089011;28;20287;-62
2022/06/20 08:10:39;;;;;;;4.13;1.87;;;20.50;52.90;;;23.82;38.74;101242.84;5088509;28;20202;-60
2022/06/20 08:13:18;;;;;;;6.03;2.43;;;20.60;52.00;;;23.77;38.37;101243.56;5088114;28;20212;-62
2022/06/20 08:15:53;;;;;;;4.17;2.00;;;20.60;51.50;;;23.73;38.41;101234.38;5089207;28;20202;-61
2022/06/20 08:18:22;;;;;;;4.97;2.33;;;20.60;51.20;;;23.84;38.37;101238.84;5089676;28;20279;-59
2022/06/20 08:20:57;;;;;;;6.43;2.47;;;20.70;51.60;;;24.09;37.92;101238.38;5088348;28;20216;-59
2022/06/20 08:23:34;;;;;;;5.23;2.53;;;20.80;51.60;;;24.56;37.12;101236.72;5088819;28;20681;-58
2022/06/20 08:26:12;;;;;;;3.37;3.00;;;20.90;50.30;;;25.50;34.31;101224.34;5088825;28;20212;-59
2022/06/20 08:28:48;;;;;;;4.53;2.87;;;21.20;48.40;;;27.01;32.76;101228.53;5087816;28;20199;-63
2022/06/20 08:31:25;;;;;;;6.27;2.40;;;21.80;47.90;;;28.54;30.71;101228.59;5089001;28;20285;-60
2022/06/20 08:34:01;;;;;;;4.50;2.10;;;22.50;47.10;;;29.44;29.53;101232.47;5087488;28;20212;-63
2022/06/20 08:36:39;;;;;;;4.03;2.40;;;23.30;45.10;;;30.24;27.49;101227.94;5087915;28;20298;-61
2022/06/20 08:39:19;;;;;;;7.07;3.17;;;24.10;42.90;;;30.22;27.79;101232.88;5088189;28;20188;-60
2022/06/20 08:42:29;;;;;;;4.30;2.00;;;24.70;41.20;;;30.27;26.57;101232.81;5083804;28;20295;-62
2022/06/20 08:45:46;;;;;;;7.33;2.50;;;25.10;38.10;;;30.76;25.76;101235.88;5080018;28;20200;-61
2022/06/20 08:49:10;;;;;;;3.10;1.90;;;25.40;36.50;;;31.52;25.35;101231.88;5083991;28;20698;-60
2022/06/20 08:52:34;;;;;;;6.00;2.47;;;25.90;36.30;;;32.65;24.62;101241.72;5082609;28;20324;-63
2022/06/20 08:55:38;;;;;;;6.30;2.30;;;26.40;35.40;;;33.98;22.61;101226.97;5084482;28;20215;-58
2022/06/20 08:58:19;;;;;;;2.73;2.00;;;27.10;34.10;;;35.03;21.55;101235.69;5084070;28;20208;-63
2022/06/20 09:01:06;;;;;;;5.27;2.40;;;27.80;32.70;;;35.68;20.18;101238.06;5084676;28;20193;-61
2022/06/20 09:04:35;;;;;;;2.87;2.07;;;28.40;30.70;;;36.26;19.21;101234.44;5085197;28;20279;-60
2022/06/20 09:07:31;;;;;;;6.53;2.33;;;29.00;30.00;;;35.90;18.88;101233.06;5085771;28;20192;-60
2022/06/20 09:10:26;;;;;;;4.60;2.47;;;29.40;28.50;;;35.19;19.67;101223.06;5084532;28;20185;-62
2022/06/20 09:13:17;;;;;;;3.87;2.10;;;29.50;27.90;;;34.08;20.22;101223.94;5084055;28;20195;-64
2022/06/20 09:15:59;;;;;;;4.67;2.63;;;29.30;28.10;;;33.05;21.90;101229.00;5085275;28;20238;-63
2022/06/20 09:18:46;;;;;;;3.40;1.97;;;28.90;28.70;;;31.89;23.15;101222.66;5082352;28;20224;-62
2022/06/20 09:21:25;;;;;;;5.70;2.87;;;28.40;29.40;;;30.87;23.99;101230.28;5082109;28;21674;-64
2022/06/20 09:24:16;;;;;;;6.70;3.50;;;27.70;30.10;;;29.95;24.83;101224.56;5083745;28;20184;-59
2022/06/20 09:26:54;;;;;;;7.00;3.87;;;27.10;30.90;;;29.19;25.71;101232.72;5084073;28;20200;-63
2022/06/20 09:29:55;;;;;;;5.10;2.87;;;26.40;32.10;;;28.40;26.51;101231.13;5083919;28;20192;-65
2022/06/20 09:33:13;;;;;;;4.27;2.80;;;25.80;33.40;;;27.77;27.38;101230.03;5083879;28;20573;-62
2022/06/20 09:36:26;;;;;;;4.80;2.80;;;25.20;34.40;;;27.13;28.59;101238.00;5084267;28;20195;-61
2022/06/20 09:39:20;;;;;;;5.93;2.70;;;24.60;35.40;;;26.63;29.37;101238.78;5083810;28;20184;-62
2022/06/20 09:42:00;;;;;;;5.00;2.70;;;24.10;36.80;;;26.25;29.53;101250.03;5083446;28;20597;-63
2022/06/20 09:44:44;;;;;;;7.77;3.00;;;23.70;37.80;;;25.84;31.00;101259.81;5083851;28;20207;-61
2022/06/20 09:47:30;;;;;;;6.13;3.00;;;23.30;39.90;;;25.42;32.14;101249.06;5083534;28;20968;-60
2022/06/20 09:50:20;;;;;;;4.30;2.50;;;22.90;41.60;;;25.09;33.52;101260.13;5083334;28;20210;-61
2022/06/20 09:53:08;;;;;;;6.00;3.60;;;22.60;42.90;;;24.82;33.97;101262.03;5085005;28;20212;-60
2022/06/20 09:55:55;;;;;;;5.27;3.03;;;22.30;44.00;;;24.58;34.88;101263.41;5085538;28;20909;-60
2022/06/20 09:58:35;;;;;;;4.80;2.63;;;22.00;45.50;;;24.40;34.80;101261.06;5084329;28;20227;-61
2022/06/20 10:01:15;;;;;;;4.33;2.70;;;21.80;45.70;;;24.26;35.80;101259.81;5086974;28;20220;-64
2022/06/20 10:03:56;;;;;;;4.47;2.67;;;21.60;46.50;;;24.23;35.67;101261.13;5086225;28;20195;-61
2022/06/20 10:06:43;;;;;;;6.07;2.70;;;21.40;47.10;;;24.88;35.21;101264.53;5087338;28;20188;-60
2022/06/20 10:09:22;;;;;;;8.70;3.37;;;21.40;47.60;;;26.40;32.98;101260.88;5090469;28;20288;-58
2022/06/20 10:12:02;;;;;;;5.93;2.43;;;21.70;47.30;;;28.43;29.87;101256.84;5092455;28;20220;-60
2022/06/20 10:14:44;;;;;;;3.73;2.27;;;22.20;46.10;;;30.48;27.94;101250.47;5090955;28;20212;-59
2022/06/20 10:17:25;;;;;;;3.73;2.30;;;23.10;44.50;;;32.20;24.67;101255.53;5091025;28;20557;-61
2022/06/20 10:20:12;;;;;;;5.73;2.17;;;24.20;41.40;;;33.62;22.71;101259.16;5093440;28;20241;-59
2022/06/20 10:22:51;;;;;;;3.97;2.20;;;25.20;38.50;;;34.17;22.22;101252.09;5094738;28;20993;-61
2022/06/20 10:25:55;;;;;;;4.50;2.60;;;26.10;36.50;;;33.09;22.55;101261.94;5096970;28;20240;-61
2022/06/20 10:28:40;;;;;;;4.57;2.60;;;26.70;34.20;;;31.90;23.88;101262.44;5088606;28;20723;-62
2022/06/20 10:31:26;;;;;;;6.90;3.00;;;26.80;34.40;;;31.75;23.76;101263.56;5089026;28;20284;-63
2022/06/20 10:34:04;;;;;;;4.87;2.47;;;26.70;34.60;;;32.41;23.30;101259.44;5090297;28;21173;-61
2022/06/20 10:36:50;;;;;;;4.93;3.77;;;26.60;34.80;;;32.44;23.41;101269.72;5085486;28;20192;-61
2022/06/20 10:39:35;;;;;;;6.80;3.07;;;26.80;34.30;;;31.56;24.09;101264.75;5088584;28;20596;-63
2022/06/20 10:42:30;;;;;;;4.40;3.23;;;26.60;33.70;;;30.38;25.14;101272.34;5087652;28;20228;-59
2022/06/20 10:45:31;;;;;;;5.70;3.63;;;26.40;34.50;;;29.35;26.63;101281.13;5087191;28;20196;-64
2022/06/20 10:48:36;;;;;;;5.20;2.40;;;26.00;36.40;;;28.46;28.11;101283.34;5087268;28;20203;-63
2022/06/20 10:51:17;;;;;;;5.50;4.30;;;25.40;36.40;;;27.95;28.68;101283.59;5068644;28;20247;-60
2022/06/20 10:54:02;;;;;;;7.70;3.73;;;25.00;37.10;;;27.65;28.74;101277.47;5088385;28;20284;-63
2022/06/20 10:56:49;;;;;;;5.47;3.83;;;24.60;37.20;;;27.54;28.76;101287.47;5084664;28;20206;-63
2022/06/20 10:59:40;;;;;;;2.67;2.20;;;24.40;37.60;;;27.93;28.00;101280.31;5085154;28;20282;-62
2022/06/20 11:02:33;;;;;;;5.23;2.90;;;24.20;37.90;;;28.62;27.55;101282.22;5085351;28;20246;-63
2022/06/20 11:05:15;;;;;;;3.30;2.00;;;24.20;38.40;;;28.90;26.94;101286.09;5087070;28;20546;-63
2022/06/20 11:07:58;;;;;;;4.37;2.10;;;24.30;38.40;;;28.83;27.10;101283.69;5085390;28;20215;-61
2022/06/20 11:11:00;;;;;;;5.53;2.30;;;24.40;38.30;;;29.00;26.94;101281.41;5085740;28;20188;-65
2022/06/20 11:13:40;;;;;;;6.77;2.80;;;24.50;37.90;;;29.82;26.65;101276.84;5084714;28;20203;-63
2022/06/20 11:16:22;;;;;;;5.30;2.03;;;24.60;38.10;;;30.24;25.56;101271.41;5086869;28;20185;-62
2022/06/20 11:19:09;;;;;;;3.47;1.70;;;24.80;37.00;;;30.53;24.86;101265.88;5086749;28;20228;-60
2022/06/20 11:21:49;;;;;;;3.90;1.90;;;25.10;36.20;;;30.35;24.62;101272.13;5085698;28;20698;-60
2022/06/20 11:24:40;;;;;;;4.37;2.63;;;25.40;35.40;;;30.03;24.76;101264.63;5086205;28;20628;-62
2022/06/20 11:27:36;;;;;;;3.77;2.00;;;25.60;34.50;;;29.60;25.19;101268.41;5087361;28;20202;-62
2022/06/20 11:30:16;;;;;;;3.10;1.70;;;25.50;33.70;;;29.27;24.56;101267.34;5087018;28;20283;-62
2022/06/20 11:33:05;;;;;;;2.60;1.53;;;25.50;32.60;;;28.95;24.67;101267.06;5082431;27;20231;-59
2022/06/20 11:35:49;;;;;;;2.37;1.57;;;25.40;32.00;;;28.71;25.22;101275.94;5085514;28;20243;-61
2022/06/20 11:38:57;;;;;;;2.67;1.80;;;25.30;32.90;;;28.24;25.91;101278.34;5083352;28;20277;-61
2022/06/20 11:41:35;;;;;;;4.30;1.83;;;25.00;33.50;;;27.99;26.30;101279.25;5085892;28;20226;-61